Time;durP1;ratioP1;P1;durP2;ratioP2;P2;SDS_P1;SDS_P2;PMS_P1;PMS_P2;Temp;Humidity;BMP_temperature;BMP_pressure;BME280_temperature;BME280_humidity;BME280_pressure;Samples;Min_cycle;Max_cycle;Signal;HPM_P1;HPM_P2
2022/08/25 00:00:48;;;;;;;11.07;4.27;;;21.90;99.90;;;;;;4991901;28;20225;-69
2022/08/25 00:03:15;;;;;;;10.10;4.30;;;21.90;99.90;;;;;;5016565;28;20712;-69
2022/08/25 00:05:42;;;;;;;14.23;4.40;;;21.90;99.90;;;;;;5079485;28;20227;-69
2022/08/25 00:08:09;;;;;;;9.27;4.27;;;21.90;99.90;;;;;;5023080;28;20266;-70
2022/08/25 00:10:38;;;;;;;13.33;4.63;;;21.80;99.90;;;;;;5006599;28;20219;-71
2022/08/25 00:13:07;;;;;;;13.27;4.80;;;21.80;99.90;;;;;;5012212;28;20206;-70
2022/08/25 00:15:34;;;;;;;10.07;4.90;;;21.80;99.90;;;;;;5011963;28;20297;-69
2022/08/25 00:18:02;;;;;;;13.30;4.57;;;21.80;99.90;;;;;;5039601;28;20729;-71
2022/08/25 00:20:32;;;;;;;11.93;4.57;;;21.80;99.90;;;;;;5033879;28;20196;-70
2022/08/25 00:23:00;;;;;;;11.30;3.87;;;21.70;99.90;;;;;;5085305;28;20200;-69
2022/08/25 00:25:27;;;;;;;10.47;4.70;;;21.70;99.90;;;;;;5011947;28;20208;-69
2022/08/25 00:27:54;;;;;;;10.47;4.43;;;21.60;99.90;;;;;;5001393;28;20234;-70
2022/08/25 00:30:22;;;;;;;11.27;4.47;;;21.60;99.90;;;;;;5061315;28;20195;-70
2022/08/25 00:32:49;;;;;;;14.40;4.57;;;21.60;99.90;;;;;;5011700;28;20297;-70
2022/08/25 00:35:16;;;;;;;11.83;4.33;;;21.60;99.90;;;;;;5011632;28;20568;-69
2022/08/25 00:37:43;;;;;;;10.63;4.33;;;21.60;99.90;;;;;;5011808;28;20294;-69
2022/08/25 00:40:11;;;;;;;8.90;4.50;;;21.60;99.90;;;;;;5052670;28;20224;-70
2022/08/25 00:42:39;;;;;;;13.83;4.27;;;21.50;99.90;;;;;;5069681;28;20215;-69
2022/08/25 00:45:07;;;;;;;8.60;4.13;;;21.50;99.90;;;;;;4984460;28;20264;-69
2022/08/25 00:47:36;;;;;;;11.33;4.10;;;21.50;99.90;;;;;;4986085;28;20725;-69
2022/08/25 00:50:08;;;;;;;9.90;4.13;;;21.50;99.90;;;;;;4988701;28;20245;-69
2022/08/25 00:52:38;;;;;;;8.87;4.10;;;21.50;99.90;;;;;;4990662;28;20237;-69
2022/08/25 00:55:08;;;;;;;9.07;3.93;;;21.50;99.90;;;;;;4989777;28;20291;-70
2022/08/25 00:57:39;;;;;;;8.17;3.90;;;21.50;99.90;;;;;;4988958;28;20214;-71
2022/08/25 01:00:13;;;;;;;8.43;3.63;;;21.50;99.90;;;;;;4987218;28;20235;-69
2022/08/25 01:02:41;;;;;;;9.07;3.90;;;21.40;99.90;;;;;;4989364;28;20292;-69
2022/08/25 01:05:09;;;;;;;7.40;4.17;;;21.40;99.90;;;;;;4990487;28;20287;-69
2022/08/25 01:07:37;;;;;;;12.00;4.13;;;21.40;99.90;;;;;;4989874;28;20301;-70
2022/08/25 01:10:06;;;;;;;8.60;3.83;;;21.40;99.90;;;;;;4988871;28;20240;-70
2022/08/25 01:12:33;;;;;;;9.47;4.43;;;21.40;99.90;;;;;;4992382;28;20208;-69
2022/08/25 01:15:02;;;;;;;8.77;4.30;;;21.40;99.90;;;;;;4991453;28;20214;-70
2022/08/25 01:17:34;;;;;;;8.13;3.80;;;21.40;99.90;;;;;;4991718;28;20211;-68
2022/08/25 01:20:03;;;;;;;11.13;4.60;;;21.40;99.90;;;;;;4990017;28;20279;-69
2022/08/25 01:22:32;;;;;;;11.00;4.37;;;21.40;99.90;;;;;;4991983;28;20312;-69
2022/08/25 01:25:05;;;;;;;9.40;4.30;;;21.30;99.90;;;;;;4989892;28;20203;-69
2022/08/25 01:27:31;;;;;;;9.00;4.80;;;21.30;99.90;;;;;;4986366;28;20670;-71
2022/08/25 01:29:58;;;;;;;9.00;4.20;;;21.30;99.90;;;;;;4991339;28;20294;-70
2022/08/25 01:32:25;;;;;;;11.93;4.50;;;21.30;99.90;;;;;;4991558;28;20693;-69
2022/08/25 01:34:52;;;;;;;12.60;4.20;;;21.30;99.90;;;;;;4991536;28;20212;-68
2022/08/25 01:37:19;;;;;;;10.80;4.70;;;21.30;99.90;;;;;;4989059;28;20634;-69
2022/08/25 01:39:48;;;;;;;12.80;5.23;;;21.20;99.90;;;;;;4991465;28;20229;-69
2022/08/25 01:42:33;;;;;;;11.67;4.77;;;21.20;99.90;;;;;;4991367;28;20701;-70
2022/08/25 01:45:00;;;;;;;9.27;4.50;;;21.20;99.90;;;;;;4991334;28;20629;-71
2022/08/25 01:47:27;;;;;;;14.93;4.53;;;21.20;99.90;;;;;;4986308;28;20332;-70
2022/08/25 01:49:54;;;;;;;11.67;4.40;;;21.20;99.90;;;;;;4988169;28;20207;-69
2022/08/25 01:52:28;;;;;;;9.80;4.77;;;21.10;99.90;;;;;;4990479;28;20216;-69
2022/08/25 01:54:56;;;;;;;7.57;4.17;;;21.10;99.90;;;;;;4990403;28;20286;-69
2022/08/25 01:57:23;;;;;;;8.03;4.70;;;21.10;99.90;;;;;;4989745;28;20744;-70
2022/08/25 01:59:50;;;;;;;12.40;4.43;;;21.00;99.90;;;;;;4990884;28;20318;-70
2022/08/25 02:02:17;;;;;;;9.63;4.10;;;21.00;99.90;;;;;;4990209;28;20215;-69
2022/08/25 02:04:44;;;;;;;11.40;4.30;;;21.00;99.90;;;;;;4990968;28;20267;-69
2022/08/25 02:07:11;;;;;;;9.53;4.63;;;21.00;99.90;;;;;;4989842;28;20200;-70
2022/08/25 02:09:39;;;;;;;9.70;4.90;;;20.90;99.90;;;;;;4990914;28;20209;-69
2022/08/25 02:12:09;;;;;;;10.77;4.47;;;20.90;99.90;;;;;;4990130;28;20215;-68
2022/08/25 02:14:36;;;;;;;10.10;4.23;;;20.90;99.90;;;;;;4990475;28;20249;-68
2022/08/25 02:17:04;;;;;;;9.37;4.33;;;20.90;99.90;;;;;;4988182;28;20205;-69
2022/08/25 02:19:31;;;;;;;9.00;4.17;;;20.90;99.90;;;;;;4990147;28;20235;-70
2022/08/25 02:21:58;;;;;;;14.50;4.90;;;20.90;99.90;;;;;;4990595;28;20265;-70
2022/08/25 02:24:25;;;;;;;7.47;4.60;;;20.80;99.90;;;;;;4991267;28;20207;-71
2022/08/25 02:26:52;;;;;;;13.17;5.03;;;20.80;99.90;;;;;;4987926;28;20211;-69
2022/08/25 02:29:21;;;;;;;9.30;4.50;;;20.80;99.90;;;;;;4990372;28;20205;-70
2022/08/25 02:31:48;;;;;;;9.70;4.70;;;20.80;99.90;;;;;;4988800;28;20207;-69
2022/08/25 02:34:15;;;;;;;7.67;4.73;;;20.80;99.90;;;;;;4990771;28;20671;-69
2022/08/25 02:36:42;;;;;;;9.90;4.70;;;20.70;99.90;;;;;;4989471;28;20630;-69
2022/08/25 02:39:11;;;;;;;9.80;5.00;;;20.70;99.90;;;;;;4990115;28;20240;-70
2022/08/25 02:41:38;;;;;;;11.43;4.97;;;20.70;99.90;;;;;;4990033;28;20309;-69
2022/08/25 02:44:07;;;;;;;13.63;5.40;;;20.60;99.90;;;;;;4990001;28;20231;-70
2022/08/25 02:46:35;;;;;;;12.63;5.47;;;20.60;99.90;;;;;;4987991;28;20326;-70
2022/08/25 02:49:03;;;;;;;10.63;4.57;;;20.50;99.90;;;;;;4970673;28;20244;-69
2022/08/25 02:51:30;;;;;;;8.80;4.83;;;20.50;99.90;;;;;;4971184;28;20291;-70
2022/08/25 02:53:58;;;;;;;14.10;5.07;;;20.40;99.90;;;;;;4970438;28;20248;-70
2022/08/25 02:56:25;;;;;;;11.43;4.83;;;20.40;99.90;;;;;;4970699;28;20634;-70
2022/08/25 02:58:52;;;;;;;7.80;4.40;;;20.30;99.90;;;;;;4989417;28;20594;-69
2022/08/25 03:01:20;;;;;;;11.40;4.60;;;20.30;99.90;;;;;;4990028;28;20315;-70
2022/08/25 03:03:48;;;;;;;13.93;4.60;;;20.20;99.90;;;;;;4990193;28;20217;-69
2022/08/25 03:06:18;;;;;;;8.83;4.83;;;20.20;99.90;;;;;;4990068;28;20294;-70
2022/08/25 03:08:46;;;;;;;8.57;4.03;;;20.20;99.90;;;;;;4987526;28;20235;-70
2022/08/25 03:11:13;;;;;;;8.40;4.70;;;20.20;99.90;;;;;;4990001;28;20243;-68
2022/08/25 03:13:40;;;;;;;9.43;4.67;;;20.10;99.90;;;;;;4990258;28;20687;-71
2022/08/25 03:16:09;;;;;;;9.77;4.67;;;20.10;99.90;;;;;;4990161;28;20291;-69
2022/08/25 03:18:36;;;;;;;9.73;4.90;;;20.10;99.90;;;;;;4988983;28;20365;-70
2022/08/25 03:21:05;;;;;;;10.43;4.80;;;20.10;99.90;;;;;;4982272;28;20668;-70
2022/08/25 03:23:31;;;;;;;15.03;4.80;;;20.10;99.90;;;;;;4970440;28;20686;-70
2022/08/25 03:28:43;;;;;;;10.53;4.70;;;20.10;99.90;;;;;;4989666;28;20912;-69
2022/08/25 03:31:10;;;;;;;10.83;5.03;;;20.10;99.90;;;;;;4975605;28;20243;-70
2022/08/25 03:33:38;;;;;;;10.17;4.83;;;20.10;99.90;;;;;;4970443;28;20250;-70
2022/08/25 03:36:08;;;;;;;9.03;5.50;;;20.10;99.90;;;;;;4970302;28;20261;-69
2022/08/25 03:38:36;;;;;;;20.17;9.77;;;20.10;99.90;;;;;;4969778;28;20204;-70
2022/08/25 03:41:13;;;;;;;10.10;5.40;;;20.10;99.90;;;;;;4981282;28;20227;-69
2022/08/25 03:43:40;;;;;;;11.20;5.50;;;20.10;99.90;;;;;;4990369;28;20603;-70
2022/08/25 03:46:07;;;;;;;9.33;4.83;;;20.10;99.90;;;;;;4992706;28;20240;-68
2022/08/25 03:48:34;;;;;;;10.37;5.33;;;20.10;99.90;;;;;;4993271;28;20274;-70
2022/08/25 03:51:01;;;;;;;10.80;5.90;;;20.10;99.90;;;;;;4994033;28;20203;-70
2022/08/25 03:53:29;;;;;;;14.33;5.63;;;20.10;99.90;;;;;;4991254;28;20216;-69
2022/08/25 03:55:56;;;;;;;12.27;5.23;;;20.10;99.90;;;;;;4982412;28;20283;-70
2022/08/25 03:58:23;;;;;;;16.10;5.03;;;20.10;99.90;;;;;;4990983;28;20666;-69
2022/08/25 04:00:50;;;;;;;10.57;6.23;;;20.10;99.90;;;;;;4992550;28;20689;-70
2022/08/25 04:03:18;;;;;;;12.23;5.70;;;20.20;99.90;;;;;;4991286;28;20232;-70
2022/08/25 04:05:46;;;;;;;10.60;5.00;;;20.20;99.90;;;;;;4992813;28;20207;-70
2022/08/25 04:08:13;;;;;;;9.50;4.60;;;20.20;99.90;;;;;;4992882;28;20210;-70
2022/08/25 04:10:41;;;;;;;16.80;5.90;;;20.30;99.90;;;;;;4991955;28;20726;-69
2022/08/25 04:13:08;;;;;;;11.80;5.10;;;20.30;99.90;;;;;;4990738;28;20299;-69
2022/08/25 04:15:35;;;;;;;10.07;5.17;;;20.30;99.90;;;;;;4990966;28;20261;-70
2022/08/25 04:18:02;;;;;;;10.67;5.43;;;20.30;99.90;;;;;;4991050;28;20300;-70
2022/08/25 04:20:30;;;;;;;15.37;5.53;;;20.30;99.90;;;;;;4989545;28;20714;-70
2022/08/25 04:22:59;;;;;;;9.97;5.10;;;20.40;99.90;;;;;;5002106;28;20200;-70
2022/08/25 04:25:26;;;;;;;13.10;4.67;;;20.40;99.90;;;;;;5001856;28;20579;-70
2022/08/25 04:27:54;;;;;;;10.87;5.20;;;20.50;99.90;;;;;;5011070;28;20216;-71
2022/08/25 04:30:22;;;;;;;16.70;5.83;;;20.50;99.90;;;;;;5010405;28;20205;-72
2022/08/25 04:32:49;;;;;;;13.00;5.53;;;20.50;99.90;;;;;;5010742;28;20318;-69
2022/08/25 04:35:16;;;;;;;9.93;5.37;;;20.50;99.90;;;;;;5011653;28;20592;-70
2022/08/25 04:37:43;;;;;;;14.60;6.10;;;20.60;99.90;;;;;;5019220;28;20287;-71
2022/08/25 04:40:11;;;;;;;11.40;5.40;;;20.60;99.90;;;;;;4988034;28;20219;-70
2022/08/25 04:42:38;;;;;;;11.77;5.63;;;20.60;99.90;;;;;;4984663;28;20621;-69
2022/08/25 04:45:08;;;;;;;11.07;5.00;;;20.70;99.90;;;;;;4994375;28;20224;-70
2022/08/25 04:47:38;;;;;;;12.30;5.20;;;20.80;99.90;;;;;;4991800;28;20322;-70
2022/08/25 04:50:06;;;;;;;10.90;5.17;;;20.80;99.90;;;;;;4998720;28;20212;-69
2022/08/25 04:52:33;;;;;;;14.70;5.40;;;20.90;99.90;;;;;;5093656;28;20255;-71
2022/08/25 04:55:00;;;;;;;10.40;5.60;;;21.00;99.90;;;;;;5094265;28;20244;-71
2022/08/25 04:57:27;;;;;;;12.30;5.47;;;21.00;99.90;;;;;;5094107;28;20206;-70
2022/08/25 04:59:54;;;;;;;11.67;5.23;;;21.10;99.90;;;;;;5030391;28;20239;-69
2022/08/25 05:02:24;;;;;;;12.53;6.03;;;21.20;99.90;;;;;;4991248;28;20736;-69
2022/08/25 05:04:50;;;;;;;17.77;6.00;;;21.30;99.90;;;;;;4991471;28;20208;-68
2022/08/25 05:07:17;;;;;;;11.30;5.50;;;21.30;99.90;;;;;;4991556;28;20234;-69
2022/08/25 05:09:44;;;;;;;11.07;5.70;;;21.30;99.90;;;;;;4991008;28;20294;-71
2022/08/25 05:12:12;;;;;;;15.10;6.30;;;21.40;99.90;;;;;;4991717;28;20214;-70
2022/08/25 05:14:39;;;;;;;16.83;5.93;;;21.50;99.90;;;;;;4991471;28;20269;-71
2022/08/25 05:17:06;;;;;;;17.37;5.60;;;21.50;99.90;;;;;;5004489;28;20210;-74
2022/08/25 05:19:35;;;;;;;14.70;6.43;;;21.60;99.90;;;;;;5010481;28;20210;-70
2022/08/25 05:22:02;;;;;;;11.63;7.53;;;21.60;99.90;;;;;;5009024;28;20221;-71
2022/08/25 05:24:29;;;;;;;24.03;6.43;;;21.70;99.90;;;;;;4984151;28;20213;-70
2022/08/25 05:26:56;;;;;;;12.07;5.97;;;21.80;99.90;;;;;;4991266;28;20211;-70
2022/08/25 05:29:25;;;;;;;10.67;5.97;;;21.90;99.90;;;;;;4989013;28;20320;-70
2022/08/25 05:31:53;;;;;;;12.67;6.10;;;22.00;99.90;;;;;;4985984;28;20247;-68
2022/08/25 05:34:20;;;;;;;12.30;5.70;;;22.10;99.90;;;;;;4983809;28;20296;-69
2022/08/25 05:36:50;;;;;;;11.80;5.83;;;22.20;99.90;;;;;;4987976;28;20216;-70
2022/08/25 05:39:17;;;;;;;13.30;5.80;;;22.20;99.90;;;;;;4991175;28;20218;-69
2022/08/25 05:41:44;;;;;;;11.57;5.73;;;22.30;99.90;;;;;;4990531;28;20867;-69
2022/08/25 05:44:11;;;;;;;14.90;5.70;;;22.40;99.90;;;;;;4987613;28;20214;-68
2022/08/25 05:46:38;;;;;;;15.50;5.80;;;22.50;99.90;;;;;;4990289;28;20239;-69
2022/08/25 05:49:05;;;;;;;11.90;5.80;;;22.50;99.90;;;;;;4990677;28;20307;-70
2022/08/25 05:51:32;;;;;;;18.17;5.53;;;22.60;99.90;;;;;;4991022;28;20222;-72
2022/08/25 05:54:00;;;;;;;10.10;6.00;;;22.70;99.90;;;;;;4988960;28;20208;-69
2022/08/25 05:56:27;;;;;;;14.07;5.43;;;22.80;99.90;;;;;;4990495;28;20733;-70
2022/08/25 05:58:54;;;;;;;12.33;5.83;;;22.90;99.90;;;;;;4990715;28;20203;-69
2022/08/25 06:04:08;;;;;;;11.10;5.57;;;23.00;99.90;;;;;;4989338;28;20207;-70
2022/08/25 06:06:35;;;;;;;11.77;5.93;;;23.10;99.90;;;;;;4987762;28;20212;-69
2022/08/25 06:09:07;;;;;;;13.90;6.33;;;23.20;99.90;;;;;;4988434;28;20294;-69
2022/08/25 06:11:35;;;;;;;14.13;6.67;;;23.30;99.90;;;;;;4990254;28;20200;-69
2022/08/25 06:14:02;;;;;;;10.87;6.10;;;23.30;99.90;;;;;;4990355;28;20298;-69
2022/08/25 06:16:29;;;;;;;11.70;6.17;;;23.40;99.90;;;;;;4989178;28;20219;-69
2022/08/25 06:18:56;;;;;;;14.53;6.37;;;23.50;99.90;;;;;;4990317;28;20221;-69
2022/08/25 06:21:23;;;;;;;12.03;6.07;;;23.60;99.90;;;;;;4988016;28;20226;-69
2022/08/25 06:23:49;;;;;;;12.47;6.37;;;23.70;99.90;;;;;;4989888;28;20368;-69
2022/08/25 06:26:18;;;;;;;16.33;6.30;;;23.70;99.90;;;;;;4989910;28;20235;-69
2022/08/25 06:28:45;;;;;;;9.87;5.73;;;23.80;99.90;;;;;;4989775;28;20209;-69
2022/08/25 06:31:12;;;;;;;15.90;6.53;;;23.90;99.90;;;;;;4987897;28;20264;-69
2022/08/25 06:33:39;;;;;;;8.70;5.60;;;24.00;99.90;;;;;;4989898;28;20268;-69
2022/08/25 06:36:07;;;;;;;11.70;6.10;;;24.10;99.90;;;;;;4990125;28;20738;-70
2022/08/25 06:38:34;;;;;;;11.10;5.47;;;24.20;99.90;;;;;;4989821;28;20669;-69
2022/08/25 06:41:03;;;;;;;14.07;5.67;;;24.30;99.90;;;;;;4987504;28;20661;-70
2022/08/25 06:43:33;;;;;;;9.40;5.83;;;24.40;99.90;;;;;;4989570;28;20731;-69
2022/08/25 06:46:07;;;;;;;14.27;5.83;;;24.50;99.90;;;;;;5003143;28;20250;-70
2022/08/25 06:48:34;;;;;;;24.10;6.80;;;24.50;99.90;;;;;;4989368;28;20301;-71
2022/08/25 06:51:04;;;;;;;14.80;5.90;;;24.60;99.90;;;;;;4989633;28;20304;-70
2022/08/25 06:53:31;;;;;;;16.53;6.27;;;24.70;99.60;;;;;;4989441;28;20299;-69
2022/08/25 06:55:59;;;;;;;13.67;5.73;;;24.80;99.50;;;;;;4989945;28;20214;-70
2022/08/25 06:58:26;;;;;;;11.70;5.30;;;24.90;98.80;;;;;;4990008;28;20589;-69
2022/08/25 07:00:54;;;;;;;13.27;6.47;;;24.90;98.50;;;;;;4989557;28;20317;-68
2022/08/25 07:03:21;;;;;;;10.67;6.70;;;25.00;98.40;;;;;;4989201;28;20244;-68
2022/08/25 07:05:52;;;;;;;10.93;5.43;;;25.10;98.20;;;;;;4989340;28;20267;-70
2022/08/25 07:08:19;;;;;;;8.73;5.20;;;25.10;98.30;;;;;;4989099;28;20208;-69
2022/08/25 07:10:46;;;;;;;15.53;5.43;;;25.20;97.80;;;;;;4989588;28;20752;-70
2022/08/25 07:13:13;;;;;;;19.70;6.30;;;25.30;97.70;;;;;;4988963;28;20209;-68
2022/08/25 07:15:41;;;;;;;22.60;5.47;;;25.40;97.80;;;;;;4999031;28;20244;-69
2022/08/25 07:18:10;;;;;;;11.70;4.70;;;25.40;97.80;;;;;;5009205;28;20301;-69
2022/08/25 07:20:37;;;;;;;9.30;4.97;;;25.50;97.80;;;;;;5012683;28;20211;-69
2022/08/25 07:23:06;;;;;;;11.90;4.97;;;25.50;97.10;;;;;;5012109;28;20217;-69
2022/08/25 07:25:33;;;;;;;13.73;5.60;;;25.60;97.20;;;;;;5012044;28;20339;-70
2022/08/25 07:28:01;;;;;;;13.45;4.90;;;25.70;97.00;;;;;;5011961;28;20249;-70
2022/08/25 07:30:28;;;;;;;15.43;5.30;;;25.70;96.30;;;;;;5022797;28;20204;-68
2022/08/25 07:32:54;;;;;;;9.73;5.50;;;25.80;96.00;;;;;;5017671;28;20317;-70
2022/08/25 07:35:24;;;;;;;12.68;5.47;;;25.80;95.60;;;;;;4991770;28;20613;-69
2022/08/25 07:37:55;;;;;;;14.30;5.13;;;25.90;95.30;;;;;;5012213;28;20206;-70
2022/08/25 07:40:24;;;;;;;8.90;4.65;;;25.90;95.40;;;;;;5075872;28;20198;-70
2022/08/25 07:42:54;;;;;;;17.65;5.10;;;26.00;95.70;;;;;;5073508;28;20288;-69
2022/08/25 07:45:28;;;;;;;10.70;4.33;;;26.10;95.10;;;;;;4992141;28;20216;-70
2022/08/25 07:47:55;;;;;;;12.77;4.23;;;26.10;94.60;;;;;;4998019;28;20332;-69
2022/08/25 07:50:24;;;;;;;11.95;5.97;;;26.20;94.20;;;;;;5011987;28;20209;-69
2022/08/25 07:52:51;;;;;;;12.03;4.57;;;26.30;94.20;;;;;;4992363;28;20306;-71
2022/08/25 07:55:18;;;;;;;14.00;4.72;;;26.30;93.80;;;;;;4990897;28;20285;-70
2022/08/25 07:57:46;;;;;;;9.05;4.43;;;26.40;94.10;;;;;;4989637;28;20656;-70
2022/08/25 08:00:16;;;;;;;15.20;4.47;;;26.50;94.70;;;;;;4988933;28;20220;-70
2022/08/25 08:02:43;;;;;;;11.55;6.30;;;26.60;93.70;;;;;;4992379;28;20315;-69
2022/08/25 08:05:11;;;;;;;10.30;4.20;;;26.70;93.30;;;;;;4992036;28;20274;-69
2022/08/25 08:07:40;;;;;;;14.00;5.53;;;26.70;92.90;;;;;;4991916;28;20235;-69
2022/08/25 08:10:09;;;;;;;11.73;6.50;;;26.80;93.00;;;;;;4991985;28;20221;-71
2022/08/25 08:12:36;;;;;;;11.35;5.43;;;26.80;93.20;;;;;;4999391;28;20297;-69
2022/08/25 08:15:04;;;;;;;19.45;5.63;;;26.90;93.60;;;;;;4994686;28;20626;-72
2022/08/25 08:17:31;;;;;;;14.70;5.38;;;26.90;94.00;;;;;;4992307;28;20648;-70
2022/08/25 08:19:58;;;;;;;14.65;4.80;;;27.00;94.50;;;;;;4991763;28;20212;-70
2022/08/25 08:22:26;;;;;;;8.52;4.78;;;27.10;94.10;;;;;;4991820;28;20236;-69
2022/08/25 08:24:54;;;;;;;9.40;4.25;;;27.20;93.90;;;;;;5010940;28;20225;-69
2022/08/25 08:27:21;;;;;;;10.25;4.10;;;27.30;93.60;;;;;;5011340;28;20224;-68
2022/08/25 08:29:48;;;;;;;9.52;4.32;;;27.30;92.30;;;;;;4994963;28;20667;-69
2022/08/25 08:32:16;;;;;;;7.82;4.43;;;27.40;92.60;;;;;;4991637;28;20235;-70
2022/08/25 08:34:43;;;;;;;11.70;4.32;;;27.40;91.70;;;;;;4992037;28;20210;-70
2022/08/25 08:37:10;;;;;;;12.05;4.20;;;27.50;92.60;;;;;;4991691;28;20685;-70
2022/08/25 08:39:38;;;;;;;7.10;4.35;;;27.50;92.10;;;;;;4989367;28;20295;-69
2022/08/25 08:42:21;;;;;;;9.40;4.80;;;27.60;92.50;;;;;;5033483;28;20225;-69
2022/08/25 08:45:20;;;;;;;11.15;5.00;;;27.60;92.90;;;;;;4992206;28;20203;-69
2022/08/25 08:47:58;;;;;;;9.15;5.00;;;27.70;93.30;;;;;;4978174;28;20779;-70
2022/08/25 08:50:32;;;;;;;22.42;5.28;;;27.70;92.80;;;;;;4998739;28;20237;-68
2022/08/25 08:53:05;;;;;;;16.40;5.03;;;27.80;93.20;;;;;;4993262;28;20286;-68
2022/08/25 08:55:35;;;;;;;11.75;5.03;;;27.90;93.20;;;;;;4986720;28;20244;-68
2022/08/25 08:58:08;;;;;;;11.00;5.03;;;27.90;93.50;;;;;;4986053;28;20210;-68
2022/08/25 09:00:43;;;;;;;8.80;4.82;;;28.00;93.00;;;;;;4991186;28;20211;-69
2022/08/25 09:03:16;;;;;;;9.27;4.90;;;28.00;92.80;;;;;;4991679;28;20271;-70
2022/08/25 09:05:47;;;;;;;11.90;5.18;;;28.10;92.90;;;;;;4992404;28;20198;-69
2022/08/25 09:08:15;;;;;;;11.00;4.93;;;28.10;93.00;;;;;;4990595;28;20199;-70
2022/08/25 09:10:57;;;;;;;10.65;4.03;;;28.20;93.10;;;;;;4989564;28;20399;-70
2022/08/25 09:13:36;;;;;;;10.38;4.22;;;28.20;90.90;;;;;;4982602;28;20266;-69
2022/08/25 09:19:08;;;;;;;16.92;4.07;;;28.40;90.30;;;;;;4971672;28;20288;-69
2022/08/25 09:21:44;;;;;;;7.43;3.20;;;28.50;90.30;;;;;;4972484;28;20677;-70
2022/08/25 09:24:32;;;;;;;8.05;3.80;;;28.60;89.30;;;;;;4985729;28;20239;-70
2022/08/25 09:27:13;;;;;;;7.07;4.00;;;28.70;89.80;;;;;;4991177;28;20251;-70
2022/08/25 09:29:57;;;;;;;9.82;4.40;;;28.70;90.20;;;;;;4991627;28;20774;-70
2022/08/25 09:32:25;;;;;;;8.00;3.97;;;28.80;90.00;;;;;;4989932;28;20211;-70
2022/08/25 09:34:54;;;;;;;8.85;3.80;;;28.80;90.80;;;;;;4989507;28;20207;-71
2022/08/25 09:37:23;;;;;;;8.63;4.70;;;28.90;91.20;;;;;;4990913;28;20672;-71
2022/08/25 09:39:50;;;;;;;11.35;4.70;;;29.00;90.80;;;;;;4989055;28;20294;-69
2022/08/25 09:42:19;;;;;;;9.73;4.10;;;29.00;90.60;;;;;;4991868;28;20250;-68
2022/08/25 09:44:48;;;;;;;6.70;4.40;;;29.10;90.30;;;;;;4990724;28;20675;-70
2022/08/25 09:47:22;;;;;;;6.95;3.50;;;29.10;90.30;;;;;;4990952;28;20301;-69
2022/08/25 09:49:56;;;;;;;10.05;4.05;;;29.20;88.60;;;;;;5001669;28;20663;-71
2022/08/25 09:52:34;;;;;;;9.02;3.42;;;29.30;88.60;;;;;;4990924;28;20525;-69
2022/08/25 09:55:35;;;;;;;7.10;3.05;;;29.40;85.20;;;;;;4990802;28;20289;-70
2022/08/25 09:58:15;;;;;;;7.70;3.40;;;29.40;86.60;;;;;;4993605;28;20391;-68
2022/08/25 10:00:44;;;;;;;7.88;3.33;;;29.50;87.00;;;;;;4990948;28;20297;-70
2022/08/25 10:03:14;;;;;;;8.73;3.50;;;29.60;87.10;;;;;;4990339;28;20581;-70
2022/08/25 10:05:58;;;;;;;10.25;3.20;;;29.70;85.40;;;;;;4990477;28;20324;-69
2022/08/25 10:08:31;;;;;;;6.13;2.92;;;29.70;83.90;;;;;;5013769;28;20211;-70
2022/08/25 10:11:00;;;;;;;8.63;3.25;;;29.70;84.10;;;;;;4990176;28;20207;-70
2022/08/25 10:13:37;;;;;;;49.58;7.55;;;29.80;84.90;;;;;;4990285;28;20291;-69
2022/08/25 10:16:10;;;;;;;7.72;2.92;;;29.80;84.70;;;;;;4990069;28;20238;-68
2022/08/25 10:18:37;;;;;;;5.07;2.75;;;29.90;83.10;;;;;;4990239;28;20709;-69
2022/08/25 10:21:13;;;;;;;4.15;2.60;;;30.00;83.20;;;;;;4990544;28;20294;-68
2022/08/25 10:23:45;;;;;;;7.72;3.35;;;30.00;81.90;;;;;;4991125;28;20682;-69
2022/08/25 10:26:22;;;;;;;8.90;4.13;;;30.10;81.10;;;;;;4990477;28;20287;-69
2022/08/25 10:29:04;;;;;;;9.63;3.38;;;30.10;81.90;;;;;;4992573;28;20209;-70
2022/08/25 10:31:37;;;;;;;6.45;2.97;;;30.20;81.80;;;;;;4990757;28;20290;-68
2022/08/25 10:34:20;;;;;;;14.07;2.80;;;30.30;80.30;;;;;;4987145;28;20649;-70
2022/08/25 10:36:56;;;;;;;11.38;2.80;;;30.40;79.40;;;;;;4970933;28;20192;-69
2022/08/25 10:39:36;;;;;;;7.53;3.10;;;30.40;77.90;;;;;;4991259;28;20246;-71
2022/08/25 10:42:18;;;;;;;8.27;2.80;;;30.50;77.40;;;;;;5010045;28;20210;-68
2022/08/25 10:48:11;;;;;;;11.07;2.83;;;30.60;77.60;;;;;;4970637;28;20239;-71
2022/08/25 10:50:42;;;;;;;6.72;2.53;;;30.70;76.30;;;;;;4970914;28;20207;-69
2022/08/25 10:53:27;;;;;;;7.70;2.20;;;30.60;72.90;;;;;;4973687;28;20677;-70
2022/08/25 10:56:06;;;;;;;5.95;2.55;;;30.60;74.10;;;;;;4994011;28;20203;-69
2022/08/25 10:58:59;;;;;;;16.67;2.90;;;30.70;75.10;;;;;;4993951;28;20617;-73
2022/08/25 11:01:36;;;;;;;27.05;4.28;;;30.80;73.10;;;;;;5003710;28;20198;-70
2022/08/25 11:04:07;;;;;;;10.32;2.45;;;30.90;72.30;;;;;;5096813;28;20527;-72
2022/08/25 11:06:40;;;;;;;12.35;3.55;;;30.80;73.00;;;;;;5004302;28;20237;-74
2022/08/25 11:09:10;;;;;;;12.65;2.80;;;30.80;74.20;;;;;;4994493;28;20278;-70
2022/08/25 11:11:41;;;;;;;7.95;2.47;;;30.80;73.30;;;;;;4994234;28;20618;-73
2022/08/25 11:14:12;;;;;;;164.07;13.57;;;30.90;73.30;;;;;;4995353;28;20286;-70
2022/08/25 11:16:44;;;;;;;16.70;3.33;;;30.90;74.10;;;;;;4993492;28;20227;-69
2022/08/25 11:19:18;;;;;;;17.05;2.50;;;31.00;74.20;;;;;;4993709;28;20195;-74
2022/08/25 11:21:52;;;;;;;7.95;2.53;;;31.00;73.10;;;;;;4991769;28;20221;-71
2022/08/25 11:24:42;;;;;;;4.20;2.50;;;31.00;73.20;;;;;;4993657;28;20533;-72
2022/08/25 11:27:15;;;;;;;6.70;2.50;;;31.00;73.00;;;;;;4993304;28;20282;-70
2022/08/25 11:29:49;;;;;;;54.10;5.85;;;31.00;73.60;;;;;;4997606;28;20571;-69
2022/08/25 11:32:19;;;;;;;41.92;4.65;;;31.10;73.70;;;;;;5002383;28;20295;-69
2022/08/25 11:34:47;;;;;;;6.35;3.20;;;31.10;73.90;;;;;;4992349;28;20582;-72
2022/08/25 11:37:21;;;;;;;6.82;2.60;;;31.10;73.10;;;;;;4993292;28;20738;-68
2022/08/25 11:40:18;;;;;;;10.23;2.60;;;31.20;74.70;;;;;;4993018;28;20192;-70
2022/08/25 11:42:58;;;;;;;14.50;3.38;;;31.20;73.70;;;;;;4992738;28;20207;-69
2022/08/25 11:45:42;;;;;;;23.58;4.38;;;31.10;72.60;;;;;;4993094;28;20238;-68
2022/08/25 11:48:21;;;;;;;5.25;2.80;;;31.00;72.40;;;;;;5004236;28;20203;-69
2022/08/25 11:51:02;;;;;;;6.47;2.90;;;30.80;73.60;;;;;;4992087;28;20207;-69
2022/08/25 11:53:31;;;;;;;10.65;2.80;;;30.80;74.30;;;;;;4992321;28;20721;-69
2022/08/25 11:56:03;;;;;;;6.60;2.50;;;30.80;73.10;;;;;;4991563;28;20203;-71
2022/08/25 11:58:46;;;;;;;60.30;7.40;;;30.70;72.80;;;;;;4985144;28;20571;-68
2022/08/25 12:01:46;;;;;;;6.72;2.97;;;30.60;73.50;;;;;;5008163;28;20200;-71
2022/08/25 12:04:16;;;;;;;46.70;5.47;;;30.50;73.70;;;;;;5016338;28;20207;-70
2022/08/25 12:07:23;;;;;;;21.15;3.78;;;30.50;74.40;;;;;;4992458;28;20211;-70
2022/08/25 12:10:23;;;;;;;22.50;3.75;;;30.70;75.40;;;;;;5005478;28;20263;-72
2022/08/25 12:13:23;;;;;;;16.98;3.13;;;30.70;74.30;;;;;;4913211;28;20191;-71
2022/08/25 12:15:59;;;;;;;6.57;2.90;;;30.90;74.30;;;;;;4913016;28;20783;-69
2022/08/25 12:18:42;;;;;;;11.07;3.05;;;30.90;73.20;;;;;;4913266;28;20248;-71
2022/08/25 12:21:25;;;;;;;7.50;2.90;;;30.90;73.70;;;;;;4919039;28;20219;-72
2022/08/25 12:24:15;;;;;;;17.85;4.13;;;31.00;74.20;;;;;;4933275;28;20280;-70
2022/08/25 12:26:53;;;;;;;54.20;6.47;;;31.10;73.10;;;;;;4932069;29;20280;-70
2022/08/25 12:29:29;;;;;;;37.20;4.60;;;31.10;72.90;;;;;;4932065;29;20536;-71
2022/08/25 12:32:25;;;;;;;7.43;3.25;;;31.10;72.60;;;;;;4932220;29;20305;-71
2022/08/25 12:35:23;;;;;;;10.95;3.33;;;31.00;73.10;;;;;;4931979;28;20284;-71
2022/08/25 12:37:59;;;;;;;5.40;3.05;;;30.90;73.10;;;;;;4931460;29;20217;-69
2022/08/25 12:40:32;;;;;;;5.95;2.70;;;30.80;73.90;;;;;;4965172;28;20426;-69
2022/08/25 12:43:08;;;;;;;6.65;3.15;;;30.80;72.80;;;;;;4948447;28;20656;-69
2022/08/25 12:45:44;;;;;;;12.52;3.60;;;30.80;73.80;;;;;;4991885;28;20712;-70
2022/08/25 12:48:48;;;;;;;18.88;3.85;;;30.80;73.30;;;;;;4991522;28;20199;-71
2022/08/25 12:51:19;;;;;;;27.80;4.55;;;30.80;72.90;;;;;;4992310;28;20210;-70
2022/08/25 12:53:52;;;;;;;28.08;4.57;;;30.70;73.80;;;;;;4991636;28;20196;-69
2022/08/25 12:56:26;;;;;;;9.57;3.63;;;30.60;73.30;;;;;;4991962;28;20225;-72
2022/08/25 12:59:01;;;;;;;3.95;3.10;;;30.60;73.20;;;;;;4990029;28;20606;-72
2022/08/25 13:01:38;;;;;;;11.60;4.53;;;30.60;72.60;;;;;;4991063;28;20234;-70
2022/08/25 13:04:19;;;;;;;14.75;3.65;;;30.70;74.70;;;;;;4991774;28;20302;-69
2022/08/25 13:07:05;;;;;;;11.18;3.72;;;30.80;75.40;;;;;;4987070;28;20646;-70
2022/08/25 13:10:03;;;;;;;17.85;3.88;;;31.00;74.00;;;;;;4989648;28;20233;-70
2022/08/25 13:12:39;;;;;;;15.07;4.20;;;30.90;73.00;;;;;;4997513;28;20286;-71